sensor_id;sensor_type;location;lat;lon;timestamp;pressure;altitude;pressure_sealevel;temperature;humidity
68230;BME280;55048;52.220;5.160;2022-08-04T00:08:47;101224.69;;;23.99;62.04
68230;BME280;55048;52.220;5.160;2022-08-04T00:11:19;101209.47;;;23.80;61.92
68230;BME280;55048;52.220;5.160;2022-08-04T00:14:05;101229.94;;;23.95;62.42
68230;BME280;55048;52.220;5.160;2022-08-04T00:16:37;101227.19;;;23.86;62.23
68230;BME280;55048;52.220;5.160;2022-08-04T00:19:28;101230.72;;;23.87;62.62
68230;BME280;55048;52.220;5.160;2022-08-04T00:22:03;101218.56;;;23.76;62.76
68230;BME280;55048;52.220;5.160;2022-08-04T00:24:30;101220.16;;;23.77;62.44
68230;BME280;55048;52.220;5.160;2022-08-04T00:26:56;101235.22;;;23.83;62.75
68230;BME280;55048;52.220;5.160;2022-08-04T00:29:22;101191.16;;;23.63;62.82
68230;BME280;55048;52.220;5.160;2022-08-04T00:31:48;101208.66;;;23.71;62.71
68230;BME280;55048;52.220;5.160;2022-08-04T00:34:14;101213.31;;;23.79;62.84
68230;BME280;55048;52.220;5.160;2022-08-04T00:36:42;101202.03;;;23.63;62.82
68230;BME280;55048;52.220;5.160;2022-08-04T00:39:12;101206.91;;;23.75;63.16
68230;BME280;55048;52.220;5.160;2022-08-04T00:41:56;101202.03;;;23.63;63.42
68230;BME280;55048;52.220;5.160;2022-08-04T00:47:23;101197.44;;;23.64;63.69
68230;BME280;55048;52.220;5.160;2022-08-04T00:50:08;101201.78;;;23.65;63.89
68230;BME280;55048;52.220;5.160;2022-08-04T00:52:53;101195.00;;;23.62;63.37
68230;BME280;55048;52.220;5.160;2022-08-04T00:55:39;101183.81;;;23.47;63.92
68230;BME280;55048;52.220;5.160;2022-08-04T01:01:04;101186.38;;;23.52;63.88
68230;BME280;55048;52.220;5.160;2022-08-04T01:09:25;101174.19;;;23.40;64.45
68230;BME280;55048;52.220;5.160;2022-08-04T01:12:25;101181.88;;;23.47;64.65
68230;BME280;55048;52.220;5.160;2022-08-04T01:15:06;101174.69;;;23.42;64.33
68230;BME280;55048;52.220;5.160;2022-08-04T01:20:07;101161.88;;;23.34;64.66
68230;BME280;55048;52.220;5.160;2022-08-04T01:22:39;101173.38;;;23.40;64.76
68230;BME280;55048;52.220;5.160;2022-08-04T01:30:44;101176.56;;;23.33;64.86
68230;BME280;55048;52.220;5.160;2022-08-04T01:33:13;101156.09;;;23.19;65.15
68230;BME280;55048;52.220;5.160;2022-08-04T01:40:43;101174.63;;;23.25;65.43
68230;BME280;55048;52.220;5.160;2022-08-04T01:43:09;101154.16;;;23.19;65.60
68230;BME280;55048;52.220;5.160;2022-08-04T01:45:36;101166.75;;;23.15;65.71
68230;BME280;55048;52.220;5.160;2022-08-04T01:48:02;101169.00;;;23.22;65.64
68230;BME280;55048;52.220;5.160;2022-08-04T01:50:32;101149.47;;;23.02;66.19
68230;BME280;55048;52.220;5.160;2022-08-04T01:52:59;101172.38;;;23.19;65.87
68230;BME280;55048;52.220;5.160;2022-08-04T01:55:27;101165.97;;;23.14;66.08
68230;BME280;55048;52.220;5.160;2022-08-04T01:57:58;101144.69;;;22.99;66.18
68230;BME280;55048;52.220;5.160;2022-08-04T02:00:27;101161.78;;;23.08;66.17
68230;BME280;55048;52.220;5.160;2022-08-04T02:02:54;101151.88;;;23.04;66.05
68230;BME280;55048;52.220;5.160;2022-08-04T02:05:22;101140.84;;;23.00;66.25
68230;BME280;55048;52.220;5.160;2022-08-04T02:10:52;101157.31;;;23.04;66.47
68230;BME280;55048;52.220;5.160;2022-08-04T02:13:22;101159.19;;;23.03;66.37
68230;BME280;55048;52.220;5.160;2022-08-04T02:16:01;101135.97;;;22.88;66.41
68230;BME280;55048;52.220;5.160;2022-08-04T02:18:32;101148.47;;;22.98;66.60
68230;BME280;55048;52.220;5.160;2022-08-04T02:21:04;101113.94;;;22.81;66.67
68230;BME280;55048;52.220;5.160;2022-08-04T02:23:37;101130.28;;;22.90;66.86
68230;BME280;55048;52.220;5.160;2022-08-04T02:26:12;101140.91;;;22.86;66.85
68230;BME280;55048;52.220;5.160;2022-08-04T02:29:03;101139.50;;;22.89;67.14
68230;BME280;55048;52.220;5.160;2022-08-04T02:31:55;101139.00;;;22.87;67.19
68230;BME280;55048;52.220;5.160;2022-08-04T02:34:28;101127.16;;;22.83;67.11
68230;BME280;55048;52.220;5.160;2022-08-04T02:36:54;101127.56;;;22.90;67.21
68230;BME280;55048;52.220;5.160;2022-08-04T02:39:20;101119.34;;;22.81;66.76
68230;BME280;55048;52.220;5.160;2022-08-04T02:41:48;101131.19;;;22.85;66.97
68230;BME280;55048;52.220;5.160;2022-08-04T02:44:19;101042.06;;;22.30;67.24
68230;BME280;55048;52.220;5.160;2022-08-04T02:46:47;101106.22;;;22.75;67.38
68230;BME280;55048;52.220;5.160;2022-08-04T02:49:16;101122.06;;;22.81;67.25
68230;BME280;55048;52.220;5.160;2022-08-04T02:51:44;101119.97;;;22.78;67.43
68230;BME280;55048;52.220;5.160;2022-08-04T02:54:14;101115.97;;;22.76;67.73
68230;BME280;55048;52.220;5.160;2022-08-04T02:56:43;101107.16;;;22.70;67.45
68230;BME280;55048;52.220;5.160;2022-08-04T02:59:11;101104.94;;;22.72;67.37
68230;BME280;55048;52.220;5.160;2022-08-04T03:01:38;101107.53;;;22.77;67.71
68230;BME280;55048;52.220;5.160;2022-08-04T03:27:08;101098.88;;;22.66;68.01
68230;BME280;55048;52.220;5.160;2022-08-04T03:30:03;101106.81;;;22.63;68.34
68230;BME280;55048;52.220;5.160;2022-08-04T03:32:52;101098.97;;;22.61;68.56
68230;BME280;55048;52.220;5.160;2022-08-04T03:41:26;101103.13;;;22.59;68.75
68230;BME280;55048;52.220;5.160;2022-08-04T03:47:22;101107.44;;;22.60;68.38
68230;BME280;55048;52.220;5.160;2022-08-04T03:50:01;101111.56;;;22.57;68.52
68230;BME280;55048;52.220;5.160;2022-08-04T04:09:46;101113.25;;;22.45;68.79
68230;BME280;55048;52.220;5.160;2022-08-04T04:17:58;101110.53;;;22.45;68.68
68230;BME280;55048;52.220;5.160;2022-08-04T04:29:01;101116.44;;;22.47;69.20
68230;BME280;55048;52.220;5.160;2022-08-04T04:34:48;101102.03;;;22.37;69.02
68230;BME280;55048;52.220;5.160;2022-08-04T04:41:04;101115.69;;;22.55;69.06
68230;BME280;55048;52.220;5.160;2022-08-04T04:46:37;101098.44;;;22.51;68.93
68230;BME280;55048;52.220;5.160;2022-08-04T04:49:48;101111.91;;;22.64;69.32
68230;BME280;55048;52.220;5.160;2022-08-04T04:54:58;101106.06;;;22.71;68.68
68230;BME280;55048;52.220;5.160;2022-08-04T04:57:28;101106.38;;;22.70;68.72
68230;BME280;55048;52.220;5.160;2022-08-04T04:59:57;101104.16;;;22.72;68.78
68230;BME280;55048;52.220;5.160;2022-08-04T05:15:55;101120.75;;;23.01;68.72
68230;BME280;55048;52.220;5.160;2022-08-04T05:18:26;101106.06;;;23.02;68.66
68230;BME280;55048;52.220;5.160;2022-08-04T05:20:57;101128.78;;;23.15;68.50
68230;BME280;55048;52.220;5.160;2022-08-04T05:23:30;101130.22;;;23.21;68.38
68230;BME280;55048;52.220;5.160;2022-08-04T05:26:06;101130.72;;;23.23;68.68
68230;BME280;55048;52.220;5.160;2022-08-04T05:28:39;101130.06;;;23.26;68.45
68230;BME280;55048;52.220;5.160;2022-08-04T05:31:28;101130.88;;;23.27;68.53
68230;BME280;55048;52.220;5.160;2022-08-04T05:34:07;101103.88;;;23.13;68.13
68230;BME280;55048;52.220;5.160;2022-08-04T05:36:38;101110.25;;;23.17;67.53
68230;BME280;55048;52.220;5.160;2022-08-04T05:39:06;101120.34;;;23.25;67.47
68230;BME280;55048;52.220;5.160;2022-08-04T05:41:33;101112.69;;;23.27;67.63
68230;BME280;55048;52.220;5.160;2022-08-04T05:44:00;101114.28;;;23.28;67.19
68230;BME280;55048;52.220;5.160;2022-08-04T05:46:27;101130.47;;;23.42;67.54
68230;BME280;55048;52.220;5.160;2022-08-04T05:48:54;101124.84;;;23.38;67.65
68230;BME280;55048;52.220;5.160;2022-08-04T05:51:20;101127.41;;;23.43;67.36
68230;BME280;55048;52.220;5.160;2022-08-04T05:53:46;101127.91;;;23.37;67.11
68230;BME280;55048;52.220;5.160;2022-08-04T05:56:13;101131.25;;;23.42;66.95
68230;BME280;55048;52.220;5.160;2022-08-04T05:58:40;101109.84;;;23.32;67.09
68230;BME280;55048;52.220;5.160;2022-08-04T06:01:07;101126.31;;;23.53;67.31
68230;BME280;55048;52.220;5.160;2022-08-04T06:03:34;101102.34;;;23.38;67.36
68230;BME280;55048;52.220;5.160;2022-08-04T06:06:01;101102.53;;;23.41;67.38
68230;BME280;55048;52.220;5.160;2022-08-04T06:08:29;101094.84;;;23.43;67.22
68230;BME280;55048;52.220;5.160;2022-08-04T06:10:56;101107.31;;;23.53;67.04
68230;BME280;55048;52.220;5.160;2022-08-04T06:13:32;101105.56;;;23.49;67.04
68230;BME280;55048;52.220;5.160;2022-08-04T06:15:59;101120.72;;;23.58;66.89
68230;BME280;55048;52.220;5.160;2022-08-04T06:18:28;101132.53;;;23.54;66.94
68230;BME280;55048;52.220;5.160;2022-08-04T06:20:55;101130.63;;;23.54;66.60
68230;BME280;55048;52.220;5.160;2022-08-04T06:23:26;101135.91;;;23.51;67.25
68230;BME280;55048;52.220;5.160;2022-08-04T06:25:56;101126.47;;;23.48;66.85
68230;BME280;55048;52.220;5.160;2022-08-04T06:28:23;101119.63;;;23.51;66.88
68230;BME280;55048;52.220;5.160;2022-08-04T06:30:50;101137.03;;;23.58;67.05
68230;BME280;55048;52.220;5.160;2022-08-04T06:33:17;101113.53;;;23.54;66.95
68230;BME280;55048;52.220;5.160;2022-08-04T06:36:01;101139.47;;;23.77;66.87
68230;BME280;55048;52.220;5.160;2022-08-04T06:38:28;101137.88;;;23.76;66.85
68230;BME280;55048;52.220;5.160;2022-08-04T06:40:55;101137.09;;;23.76;66.94
68230;BME280;55048;52.220;5.160;2022-08-04T06:43:25;101129.09;;;23.71;66.92
68230;BME280;55048;52.220;5.160;2022-08-04T06:45:53;101137.44;;;23.83;66.62
68230;BME280;55048;52.220;5.160;2022-08-04T06:48:20;101130.53;;;23.85;66.47
68230;BME280;55048;52.220;5.160;2022-08-04T06:50:47;101138.69;;;23.85;66.46
68230;BME280;55048;52.220;5.160;2022-08-04T06:53:14;101154.22;;;23.93;66.53
68230;BME280;55048;52.220;5.160;2022-08-04T06:55:41;101142.53;;;23.93;66.19
68230;BME280;55048;52.220;5.160;2022-08-04T06:58:07;101160.13;;;24.04;66.48
68230;BME280;55048;52.220;5.160;2022-08-04T07:00:35;101160.75;;;24.10;66.34
68230;BME280;55048;52.220;5.160;2022-08-04T07:03:02;101151.00;;;24.09;66.25
68230;BME280;55048;52.220;5.160;2022-08-04T07:05:28;101150.38;;;24.12;66.02
68230;BME280;55048;52.220;5.160;2022-08-04T07:07:54;101123.66;;;23.97;65.88
68230;BME280;55048;52.220;5.160;2022-08-04T07:10:21;101155.97;;;24.15;65.94
68230;BME280;55048;52.220;5.160;2022-08-04T07:12:48;101157.72;;;24.11;65.79
68230;BME280;55048;52.220;5.160;2022-08-04T07:15:16;101158.03;;;24.18;66.10
68230;BME280;55048;52.220;5.160;2022-08-04T07:17:43;101169.06;;;24.13;66.47
68230;BME280;55048;52.220;5.160;2022-08-04T07:20:09;101152.28;;;24.03;66.34
68230;BME280;55048;52.220;5.160;2022-08-04T07:22:35;101156.09;;;24.10;66.54
68230;BME280;55048;52.220;5.160;2022-08-04T07:25:00;101105.31;;;23.93;66.25
68230;BME280;55048;52.220;5.160;2022-08-04T07:27:26;101155.47;;;24.31;66.08
68230;BME280;55048;52.220;5.160;2022-08-04T07:29:52;101157.53;;;24.34;66.20
68230;BME280;55048;52.220;5.160;2022-08-04T07:32:21;101150.06;;;24.39;65.85
68230;BME280;55048;52.220;5.160;2022-08-04T07:34:50;101153.88;;;24.47;65.83
68230;BME280;55048;52.220;5.160;2022-08-04T07:37:17;101167.44;;;24.64;65.19
68230;BME280;55048;52.220;5.160;2022-08-04T07:39:43;101170.63;;;24.75;65.43
68230;BME280;55048;52.220;5.160;2022-08-04T07:42:09;101162.94;;;24.86;65.04
68230;BME280;55048;52.220;5.160;2022-08-04T07:44:35;101164.50;;;24.96;64.81
68230;BME280;55048;52.220;5.160;2022-08-04T07:47:02;101163.53;;;25.09;64.41
68230;BME280;55048;52.220;5.160;2022-08-04T07:49:29;101177.53;;;25.28;63.92
68230;BME280;55048;52.220;5.160;2022-08-04T07:51:54;101178.69;;;25.48;63.45
68230;BME280;55048;52.220;5.160;2022-08-04T07:54:21;101158.25;;;25.42;62.41
68230;BME280;55048;52.220;5.160;2022-08-04T07:56:47;101154.84;;;25.45;61.55
68230;BME280;55048;52.220;5.160;2022-08-04T07:59:16;101161.78;;;25.63;60.75
68230;BME280;55048;52.220;5.160;2022-08-04T08:01:42;101187.22;;;25.97;60.35
68230;BME280;55048;52.220;5.160;2022-08-04T08:04:09;101182.59;;;25.98;60.53
68230;BME280;55048;52.220;5.160;2022-08-04T08:06:37;101177.59;;;26.00;60.00
68230;BME280;55048;52.220;5.160;2022-08-04T08:09:22;101185.22;;;26.06;59.80
68230;BME280;55048;52.220;5.160;2022-08-04T08:11:51;101194.03;;;26.12;59.71
68230;BME280;55048;52.220;5.160;2022-08-04T08:14:17;101191.69;;;26.23;59.72
68230;BME280;55048;52.220;5.160;2022-08-04T08:16:43;101187.59;;;26.29;59.47
68230;BME280;55048;52.220;5.160;2022-08-04T08:19:09;101186.38;;;26.26;59.94
68230;BME280;55048;52.220;5.160;2022-08-04T08:21:35;101185.94;;;26.36;60.17
68230;BME280;55048;52.220;5.160;2022-08-04T08:24:01;101192.19;;;26.58;59.24
68230;BME280;55048;52.220;5.160;2022-08-04T08:26:26;101182.47;;;26.81;58.39
68230;BME280;55048;52.220;5.160;2022-08-04T08:28:52;101196.03;;;27.02;58.06
68230;BME280;55048;52.220;5.160;2022-08-04T08:31:18;101205.63;;;27.08;57.76
68230;BME280;55048;52.220;5.160;2022-08-04T08:33:44;101194.78;;;26.87;56.64
68230;BME280;55048;52.220;5.160;2022-08-04T08:36:37;101203.19;;;26.82;57.06
68230;BME280;55048;52.220;5.160;2022-08-04T08:39:12;101203.97;;;26.83;56.54
68230;BME280;55048;52.220;5.160;2022-08-04T08:52:47;101203.28;;;27.19;54.72
68230;BME280;55048;52.220;5.160;2022-08-04T08:58:06;101186.44;;;27.29;54.86
68230;BME280;55048;52.220;5.160;2022-08-04T09:09:21;101200.75;;;27.51;54.89
68230;BME280;55048;52.220;5.160;2022-08-04T09:12:06;101204.28;;;27.51;53.91
68230;BME280;55048;52.220;5.160;2022-08-04T09:17:13;101217.16;;;27.38;52.66
68230;BME280;55048;52.220;5.160;2022-08-04T09:19:52;101229.88;;;27.22;52.60
68230;BME280;55048;52.220;5.160;2022-08-04T09:22:47;101215.91;;;26.90;51.51
68230;BME280;55048;52.220;5.160;2022-08-04T09:25:21;101215.56;;;26.80;51.86
68230;BME280;55048;52.220;5.160;2022-08-04T09:27:53;101219.88;;;27.26;51.21
68230;BME280;55048;52.220;5.160;2022-08-04T09:30:33;101208.75;;;27.43;50.54
68230;BME280;55048;52.220;5.160;2022-08-04T09:36:06;101220.34;;;27.40;50.42
68230;BME280;55048;52.220;5.160;2022-08-04T09:38:42;101194.63;;;27.41;50.32
68230;BME280;55048;52.220;5.160;2022-08-04T09:44:07;101220.00;;;27.79;49.86
68230;BME280;55048;52.220;5.160;2022-08-04T09:46:48;101217.97;;;27.76;49.40
68230;BME280;55048;52.220;5.160;2022-08-04T09:49:22;101231.84;;;27.83;49.42
68230;BME280;55048;52.220;5.160;2022-08-04T10:02:14;101228.19;;;27.30;49.07
68230;BME280;55048;52.220;5.160;2022-08-04T10:04:43;101248.44;;;27.41;49.26
68230;BME280;55048;52.220;5.160;2022-08-04T10:07:40;101257.22;;;27.59;49.90
68230;BME280;55048;52.220;5.160;2022-08-04T10:13:29;101236.97;;;27.48;48.77
68230;BME280;55048;52.220;5.160;2022-08-04T10:16:19;101272.81;;;27.46;49.19
68230;BME280;55048;52.220;5.160;2022-08-04T10:26:51;101254.50;;;27.01;48.79
68230;BME280;55048;52.220;5.160;2022-08-04T10:29:44;101270.03;;;27.09;49.03
68230;BME280;55048;52.220;5.160;2022-08-04T10:32:21;101282.38;;;27.07;49.28
68230;BME280;55048;52.220;5.160;2022-08-04T10:35:07;101293.47;;;27.10;49.37
68230;BME280;55048;52.220;5.160;2022-08-04T10:40:42;101278.72;;;27.24;49.86
68230;BME280;55048;52.220;5.160;2022-08-04T10:51:34;101280.75;;;27.27;48.63
68230;BME280;55048;52.220;5.160;2022-08-04T10:54:13;101277.09;;;27.23;48.44
68230;BME280;55048;52.220;5.160;2022-08-04T10:56:48;101303.53;;;27.31;48.39
68230;BME280;55048;52.220;5.160;2022-08-04T10:59:25;101274.47;;;27.14;47.83
68230;BME280;55048;52.220;5.160;2022-08-04T11:01:57;101281.06;;;27.13;48.31
68230;BME280;55048;52.220;5.160;2022-08-04T11:04:32;101305.00;;;27.28;48.33
68230;BME280;55048;52.220;5.160;2022-08-04T11:07:00;101289.16;;;27.21;48.05
68230;BME280;55048;52.220;5.160;2022-08-04T11:09:27;101292.16;;;27.29;47.52
68230;BME280;55048;52.220;5.160;2022-08-04T11:12:04;101281.66;;;27.31;47.63
68230;BME280;55048;52.220;5.160;2022-08-04T11:14:36;101302.53;;;27.48;47.61
68230;BME280;55048;52.220;5.160;2022-08-04T11:17:06;101300.13;;;27.46;47.06
68230;BME280;55048;52.220;5.160;2022-08-04T11:22:43;101322.63;;;27.76;46.66
68230;BME280;55048;52.220;5.160;2022-08-04T11:25:16;101304.16;;;27.85;47.16
68230;BME280;55048;52.220;5.160;2022-08-04T11:30:33;101300.13;;;28.32;46.02
68230;BME280;55048;52.220;5.160;2022-08-04T11:38:45;101299.97;;;28.53;44.57
68230;BME280;55048;52.220;5.160;2022-08-04T11:41:17;101305.25;;;28.73;44.80
68230;BME280;55048;52.220;5.160;2022-08-04T11:43:50;101297.38;;;28.72;44.60
68230;BME280;55048;52.220;5.160;2022-08-04T11:46:43;101310.19;;;28.68;44.51
68230;BME280;55048;52.220;5.160;2022-08-04T11:49:32;101302.03;;;28.84;43.96
68230;BME280;55048;52.220;5.160;2022-08-04T11:52:00;101299.06;;;28.77;44.29
68230;BME280;55048;52.220;5.160;2022-08-04T11:54:26;101290.38;;;28.87;44.73
68230;BME280;55048;52.220;5.160;2022-08-04T11:56:52;101284.59;;;29.04;43.70
68230;BME280;55048;52.220;5.160;2022-08-04T11:59:21;101300.88;;;29.13;42.78
68230;BME280;55048;52.220;5.160;2022-08-04T12:04:56;101310.22;;;28.96;44.19
68230;BME280;55048;52.220;5.160;2022-08-04T12:10:23;101304.56;;;29.05;43.62
68230;BME280;55048;52.220;5.160;2022-08-04T12:18:38;101296.66;;;29.31;43.42
68230;BME280;55048;52.220;5.160;2022-08-04T12:21:11;101282.16;;;29.31;42.52
68230;BME280;55048;52.220;5.160;2022-08-04T12:23:39;101277.75;;;29.26;42.49
68230;BME280;55048;52.220;5.160;2022-08-04T12:26:09;101285.31;;;29.33;43.41
68230;BME280;55048;52.220;5.160;2022-08-04T12:28:40;101287.28;;;29.16;42.93
68230;BME280;55048;52.220;5.160;2022-08-04T12:31:20;101296.19;;;28.85;43.10
68230;BME280;55048;52.220;5.160;2022-08-04T12:33:53;101317.63;;;28.95;43.40
68230;BME280;55048;52.220;5.160;2022-08-04T12:36:30;101316.34;;;28.93;43.03
68230;BME280;55048;52.220;5.160;2022-08-04T12:41:38;101305.97;;;28.86;42.25
68230;BME280;55048;52.220;5.160;2022-08-04T12:44:11;101302.03;;;28.84;41.88
68230;BME280;55048;52.220;5.160;2022-08-04T12:46:37;101286.94;;;28.90;41.73
68230;BME280;55048;52.220;5.160;2022-08-04T12:49:04;101298.38;;;29.08;42.24
68230;BME280;55048;52.220;5.160;2022-08-04T12:51:36;101292.50;;;29.21;41.65
68230;BME280;55048;52.220;5.160;2022-08-04T12:54:04;101305.13;;;29.26;41.87
68230;BME280;55048;52.220;5.160;2022-08-04T12:56:31;101298.75;;;29.22;42.13
68230;BME280;55048;52.220;5.160;2022-08-04T12:59:04;101313.00;;;29.43;41.50
68230;BME280;55048;52.220;5.160;2022-08-04T13:01:30;101308.44;;;29.47;41.04
68230;BME280;55048;52.220;5.160;2022-08-04T13:03:57;101308.16;;;29.53;41.01
68230;BME280;55048;52.220;5.160;2022-08-04T13:06:43;101303.38;;;29.49;41.71
68230;BME280;55048;52.220;5.160;2022-08-04T13:09:18;101291.44;;;29.42;41.21
68230;BME280;55048;52.220;5.160;2022-08-04T13:12:04;101310.91;;;29.53;41.47
68230;BME280;55048;52.220;5.160;2022-08-04T13:14:36;101308.00;;;29.61;40.62
68230;BME280;55048;52.220;5.160;2022-08-04T13:17:04;101313.94;;;29.63;41.08
68230;BME280;55048;52.220;5.160;2022-08-04T13:19:31;101296.06;;;29.38;40.14
68230;BME280;55048;52.220;5.160;2022-08-04T13:21:57;101280.94;;;29.44;40.89
68230;BME280;55048;52.220;5.160;2022-08-04T13:24:25;101309.16;;;29.76;40.61
68230;BME280;55048;52.220;5.160;2022-08-04T13:26:56;101290.84;;;29.64;40.63
68230;BME280;55048;52.220;5.160;2022-08-04T13:29:24;101313.56;;;29.81;39.82
68230;BME280;55048;52.220;5.160;2022-08-04T13:31:53;101299.25;;;29.71;39.57
68230;BME280;55048;52.220;5.160;2022-08-04T13:34:20;101316.13;;;29.89;39.94
68230;BME280;55048;52.220;5.160;2022-08-04T13:36:47;101298.59;;;29.78;39.57
68230;BME280;55048;52.220;5.160;2022-08-04T13:39:17;101316.47;;;29.88;39.24
68230;BME280;55048;52.220;5.160;2022-08-04T13:41:54;101301.69;;;29.92;39.28
68230;BME280;55048;52.220;5.160;2022-08-04T13:44:30;101301.22;;;30.06;39.95
68230;BME280;55048;52.220;5.160;2022-08-04T13:47:12;101317.50;;;29.99;39.64
68230;BME280;55048;52.220;5.160;2022-08-04T13:49:38;101314.31;;;29.97;39.41
68230;BME280;55048;52.220;5.160;2022-08-04T13:52:05;101301.59;;;29.89;39.58
68230;BME280;55048;52.220;5.160;2022-08-04T13:54:38;101308.72;;;30.09;40.15
68230;BME280;55048;52.220;5.160;2022-08-04T13:57:09;101298.91;;;30.08;39.63
68230;BME280;55048;52.220;5.160;2022-08-04T13:59:37;101315.13;;;29.97;39.52
68230;BME280;55048;52.220;5.160;2022-08-04T14:02:06;101311.31;;;30.02;39.26
68230;BME280;55048;52.220;5.160;2022-08-04T14:04:38;101303.16;;;30.06;39.70
68230;BME280;55048;52.220;5.160;2022-08-04T14:07:17;101296.09;;;29.89;39.46
68230;BME280;55048;52.220;5.160;2022-08-04T14:09:43;101305.81;;;30.18;39.53
68230;BME280;55048;52.220;5.160;2022-08-04T14:12:10;101301.56;;;30.20;39.58
68230;BME280;55048;52.220;5.160;2022-08-04T14:14:48;101307.94;;;30.09;39.53
68230;BME280;55048;52.220;5.160;2022-08-04T14:17:16;101312.00;;;30.15;39.42
68230;BME280;55048;52.220;5.160;2022-08-04T14:19:58;101320.59;;;29.97;39.40
68230;BME280;55048;52.220;5.160;2022-08-04T14:27:20;101311.69;;;29.69;39.41
68230;BME280;55048;52.220;5.160;2022-08-04T14:29:45;101311.97;;;29.64;39.76
68230;BME280;55048;52.220;5.160;2022-08-04T14:32:11;101309.69;;;29.66;39.76
68230;BME280;55048;52.220;5.160;2022-08-04T14:34:38;101321.25;;;29.75;39.91
68230;BME280;55048;52.220;5.160;2022-08-04T14:37:08;101303.19;;;29.42;38.96
68230;BME280;55048;52.220;5.160;2022-08-04T14:39:36;101320.16;;;29.32;39.55
68230;BME280;55048;52.220;5.160;2022-08-04T14:42:02;101326.66;;;28.96;39.77
68230;BME280;55048;52.220;5.160;2022-08-04T14:44:28;101322.41;;;28.58;39.94
68230;BME280;55048;52.220;5.160;2022-08-04T14:46:55;101312.09;;;28.39;40.47
68230;BME280;55048;52.220;5.160;2022-08-04T14:49:22;101316.66;;;28.23;41.03
68230;BME280;55048;52.220;5.160;2022-08-04T14:51:53;101324.41;;;28.21;40.89
68230;BME280;55048;52.220;5.160;2022-08-04T14:54:33;101345.41;;;28.17;40.93
68230;BME280;55048;52.220;5.160;2022-08-04T14:57:04;101335.13;;;28.02;40.99
68230;BME280;55048;52.220;5.160;2022-08-04T14:59:40;101329.34;;;28.03;41.16
68230;BME280;55048;52.220;5.160;2022-08-04T15:02:06;101348.34;;;28.12;40.95
68230;BME280;55048;52.220;5.160;2022-08-04T15:04:32;101312.22;;;28.06;41.29
68230;BME280;55048;52.220;5.160;2022-08-04T15:06:59;101341.84;;;28.29;40.96
68230;BME280;55048;52.220;5.160;2022-08-04T15:09:25;101305.97;;;28.18;40.69
68230;BME280;55048;52.220;5.160;2022-08-04T15:11:51;101315.97;;;28.38;40.86
68230;BME280;55048;52.220;5.160;2022-08-04T15:14:17;101343.63;;;28.49;41.01
68230;BME280;55048;52.220;5.160;2022-08-04T15:16:43;101341.59;;;28.34;41.01
68230;BME280;55048;52.220;5.160;2022-08-04T15:19:09;101323.47;;;28.29;40.54
68230;BME280;55048;52.220;5.160;2022-08-04T15:21:35;101335.56;;;28.28;40.51
68230;BME280;55048;52.220;5.160;2022-08-04T15:24:01;101325.53;;;28.20;40.79
68230;BME280;55048;52.220;5.160;2022-08-04T15:26:41;101340.69;;;28.30;40.96
68230;BME280;55048;52.220;5.160;2022-08-04T15:29:18;101335.59;;;28.40;41.59
68230;BME280;55048;52.220;5.160;2022-08-04T15:31:45;101346.38;;;28.49;40.72
68230;BME280;55048;52.220;5.160;2022-08-04T15:34:12;101328.31;;;28.08;40.41
68230;BME280;55048;52.220;5.160;2022-08-04T15:39:54;101349.25;;;27.79;41.25
68230;BME280;55048;52.220;5.160;2022-08-04T15:42:30;101345.78;;;27.58;42.14
68230;BME280;55048;52.220;5.160;2022-08-04T15:50:24;101347.56;;;27.29;42.79
68230;BME280;55048;52.220;5.160;2022-08-04T15:53:03;101361.56;;;27.40;42.87
68230;BME280;55048;52.220;5.160;2022-08-04T15:58:07;101366.25;;;27.39;42.86
68230;BME280;55048;52.220;5.160;2022-08-04T16:05:58;101342.38;;;27.49;42.28
68230;BME280;55048;52.220;5.160;2022-08-04T16:08:25;101362.53;;;27.56;42.47
68230;BME280;55048;52.220;5.160;2022-08-04T16:10:51;101346.28;;;27.27;41.94
68230;BME280;55048;52.220;5.160;2022-08-04T16:13:20;101370.34;;;27.45;42.25
68230;BME280;55048;52.220;5.160;2022-08-04T16:15:48;101382.63;;;27.39;41.99
68230;BME280;55048;52.220;5.160;2022-08-04T16:20:48;101346.19;;;27.02;42.39
68230;BME280;55048;52.220;5.160;2022-08-04T16:25:43;101348.41;;;26.67;43.13
68230;BME280;55048;52.220;5.160;2022-08-04T16:31:00;101372.16;;;26.66;43.50
68230;BME280;55048;52.220;5.160;2022-08-04T16:33:27;101367.38;;;26.63;43.17
68230;BME280;55048;52.220;5.160;2022-08-04T16:35:54;101366.75;;;26.58;43.14
68230;BME280;55048;52.220;5.160;2022-08-04T16:38:20;101370.16;;;26.55;43.55
68230;BME280;55048;52.220;5.160;2022-08-04T16:40:53;101374.09;;;26.45;44.20
68230;BME280;55048;52.220;5.160;2022-08-04T16:43:18;101371.97;;;26.42;43.74
68230;BME280;55048;52.220;5.160;2022-08-04T16:48:22;101376.53;;;26.29;43.47
68230;BME280;55048;52.220;5.160;2022-08-04T16:51:05;101365.59;;;26.08;44.18
68230;BME280;55048;52.220;5.160;2022-08-04T16:53:39;101381.31;;;26.11;43.98
68230;BME280;55048;52.220;5.160;2022-08-04T16:56:09;101368.78;;;26.10;43.89
68230;BME280;55048;52.220;5.160;2022-08-04T16:58:35;101382.22;;;26.15;43.48
68230;BME280;55048;52.220;5.160;2022-08-04T17:01:09;101381.47;;;26.06;43.72
68230;BME280;55048;52.220;5.160;2022-08-04T17:03:36;101369.78;;;26.06;43.93
68230;BME280;55048;52.220;5.160;2022-08-04T17:06:05;101373.03;;;25.99;44.08
68230;BME280;55048;52.220;5.160;2022-08-04T17:08:31;101352.25;;;25.77;44.02
68230;BME280;55048;52.220;5.160;2022-08-04T17:10:57;101377.22;;;25.88;44.17
68230;BME280;55048;52.220;5.160;2022-08-04T17:13:30;101376.47;;;25.79;44.44
68230;BME280;55048;52.220;5.160;2022-08-04T17:16:03;101353.72;;;25.66;44.39
68230;BME280;55048;52.220;5.160;2022-08-04T17:18:50;101376.31;;;25.66;44.91